Euro Snow — VQGH9 — position and weather

sailwx.info

Track history (hours):
 
Tides and Currents Weather Stations Pressure Air Temp Water Temp Dewpoint Dewpoint Depression Visibility Wind Speed Wind Dir Waves Ship Positions

Euro Snow

Last reported at 2014-Sep-18 18:16 UTC. Time now 2014-Sep-19 11:56 UTC.
Position N 38°38' W 009°35'.

Length 133 m; draft 7.2 m.

Type: Cargo ship. MMSI: 235613000.

Date/timePositionNaut miles runAvg speedWind from/ knotsBaromVisibWave heightAir tempDewpointWater temp
2014-Sep-18 18:16N 38°38' W 009°35'1014.1
2014-Sep-18 17:33N 38°37' W 009°22'1413.9
2014-Sep-18 16:33N 38°43' W 009°06'0 0.0
2014-Sep-18 15:24N 38°44' W 009°06'0 0.0
2014-Sep-18 14:31N 38°44' W 009°06'0 0.0
2014-Sep-18 13:31N 38°44' W 009°06'0 0.0
2014-Sep-18 12:31N 38°44' W 009°06'0 0.0
2014-Sep-18 11:31N 38°44' W 009°06'0 0.0
2014-Sep-18 10:25N 38°44' W 009°06'0 0.0
2014-Sep-18 09:33N 38°44' W 009°06'0 0.0
2014-Sep-18 08:33N 38°44' W 009°06'0 0.0
2014-Sep-18 07:33N 38°44' W 009°06'0 0.0
2014-Sep-18 06:31N 38°43' W 009°06'3 3.0
2014-Sep-18 05:34N 38°42' W 009°09'1111.2
2014-Sep-18 04:33N 38°37' W 009°22'  
2014-Sep-14 12:20N 50°30' E 000°11'1114.1
2014-Sep-14 11:33N 50°35' E 000°26'1515.0
2014-Sep-14 10:33N 50°42' E 000°47'3517.4
2014-Sep-14 08:33N 51°03' E 001°31'1716.6
2014-Sep-14 07:33N 51°15' E 001°49'1515.0
2014-Sep-14 06:33N 51°28' E 002°02'1514.2
2014-Sep-14 05:29N 51°39' E 002°18'4213.7
2014-Sep-14 02:27N 52°02' E 003°14'1416.1
2014-Sep-14 01:33N 52°04' E 003°37'16 4.1
2014-Sep-13 21:33N 51°58' E 004°02'0 0.0
2014-Sep-13 20:33N 51°58' E 004°02'0 0.0
2014-Sep-13 19:30N 51°58' E 004°02'0 0.0
2014-Sep-13 18:32N 51°58' E 004°02'0 0.0
2014-Sep-13 17:31N 51°58' E 004°02'0 0.0
2014-Sep-13 16:31N 51°58' E 004°02'0 0.0
2014-Sep-13 15:28N 51°58' E 004°02'0 0.0
2014-Sep-13 14:31N 51°58' E 004°02'0 0.0
2014-Sep-13 13:31N 51°58' E 004°02'0 0.0
2014-Sep-13 12:28N 51°58' E 004°02'0 0.0
2014-Sep-13 11:31N 51°58' E 004°02'0 0.0
2014-Sep-13 10:32N 51°58' E 004°02'0 0.0
2014-Sep-13 09:31N 51°58' E 004°02'0 0.0
2014-Sep-13 08:32N 51°58' E 004°02'0 0.0
2014-Sep-13 07:32N 51°58' E 004°02'0 0.0
2014-Sep-13 06:32N 51°58' E 004°02'0 0.0
2014-Sep-13 05:23N 51°58' E 004°02'0 0.0
2014-Sep-13 04:08N 51°58' E 004°02'0 0.0
2014-Sep-13 03:32N 51°58' E 004°02'0 0.0
2014-Sep-13 02:32N 51°58' E 004°02'0 0.0
2014-Sep-13 01:28N 51°58' E 004°02'0 0.0
2014-Sep-13 00:32N 51°58' E 004°02'0 0.5
2014-Sep-12 23:34N 51°58' E 004°03'8 7.8
2014-Sep-12 22:33N 52°01' E 003°51'1212.0
2014-Sep-12 21:33N 52°13' E 003°47'1313.2
2014-Sep-12 20:33N 52°26' E 003°50'1312.7
2014-Sep-12 19:33N 52°38' E 003°54'1211.9
2014-Sep-12 18:33N 52°50' E 003°58'1111.0
2014-Sep-12 17:33N 52°60' E 004°06'1311.6
2014-Sep-12 16:27N 53°08' E 004°22'1612.3
2014-Sep-12 15:11N 53°23' E 004°32'813.2
2014-Sep-12 14:33N 53°31' E 004°36'1413.3
2014-Sep-12 13:29N 53°44' E 004°42'1313.2
2014-Sep-12 12:30N 53°56' E 004°50'1413.8
2014-Sep-12 11:30N 54°09' E 004°58'10016.8
2014-Sep-12 05:33N 55°34' E 006°30'1717.0
2014-Sep-12 04:33N 55°48' E 006°47'13316.4
2014-Sep-11 20:25N 57°30' E 009°23'1517.0
2014-Sep-11 19:33N 57°38' E 009°46'1717.1
2014-Sep-11 18:33N 57°46' E 010°14'1616.4
2014-Sep-11 17:33N 57°49' E 010°44'1716.7
2014-Sep-11 16:33N 57°37' E 011°08'1616.4
2014-Sep-11 15:33N 57°25' E 011°28'1717.0
2014-Sep-11 14:33N 57°09' E 011°39'1717.0
2014-Sep-11 13:33N 56°53' E 011°49'1514.9
2014-Sep-11 12:32N 56°38' E 011°44'28 2.0
2014-Sep-10 22:26N 56°17' E 011°10'1314.1
2014-Sep-10 21:30N 56°27' E 011°26'1314.0
2014-Sep-10 20:33N 56°37' E 011°40'1313.0
2014-Sep-10 19:33N 56°49' E 011°49'1414.0
2014-Sep-10 18:33N 57°03' E 011°41'1414.0
2014-Sep-10 17:34N 57°16' E 011°36'1514.8
2014-Sep-10 16:34N 57°31' E 011°37'1212.4
2014-Sep-10 15:33N 57°41' E 011°51'0 0.2
2014-Sep-10 14:31N 57°41' E 011°51'0 0.0
2014-Sep-10 13:31N 57°41' E 011°51'0 0.0
2014-Sep-10 12:28N 57°41' E 011°51'0 0.0
2014-Sep-10 11:31N 57°41' E 011°51'0 0.0
2014-Sep-10 10:31N 57°41' E 011°51'0 0.0
2014-Sep-10 09:31N 57°41' E 011°51'0 0.0
2014-Sep-10 08:31N 57°41' E 011°51'0 0.0
2014-Sep-10 07:31N 57°41' E 011°51'0 0.0
2014-Sep-10 06:31N 57°41' E 011°51'0 0.0
2014-Sep-10 05:31N 57°41' E 011°51'0 0.0
2014-Sep-10 04:31N 57°41' E 011°51'6 5.8
2014-Sep-10 03:34N 57°38' E 011°42'1313.2
2014-Sep-10 02:34N 57°40' E 011°17'1615.5
2014-Sep-10 01:33N 57°47' E 010°51'39815.8
2014-Sep-09 00:19N 54°58' E 000°00'1215.5
2014-Sep-08 23:33N 54°54' W 000°18'1615.5
2014-Sep-08 22:32N 54°47' W 000°43'1515.0
2014-Sep-08 21:30N 54°40' W 001°07'  
Track history (hours):
 
Tides and Currents Weather Stations Pressure Air Temp Water Temp Dewpoint Dewpoint Depression Visibility Wind Speed Wind Dir Waves Ship Positions

Euro Snow

Last reported at 2014-Sep-18 18:16 UTC. Time now 2014-Sep-19 11:56 UTC.
Position N 38°38' W 009°35'.

Length 133 m; draft 7.2 m.

Type: Cargo ship. MMSI: 235613000.

Date/timePositionNaut miles runAvg speedWind from/ knotsBaromVisibWave heightAir tempDewpointWater temp
2014-Sep-18 18:16N 38°38' W 009°35'1014.1
2014-Sep-18 17:33N 38°37' W 009°22'1413.9
2014-Sep-18 16:33N 38°43' W 009°06'0 0.0
2014-Sep-18 15:24N 38°44' W 009°06'0 0.0
2014-Sep-18 14:31N 38°44' W 009°06'0 0.0
2014-Sep-18 13:31N 38°44' W 009°06'0 0.0
2014-Sep-18 12:31N 38°44' W 009°06'0 0.0
2014-Sep-18 11:31N 38°44' W 009°06'0 0.0
2014-Sep-18 10:25N 38°44' W 009°06'0 0.0
2014-Sep-18 09:33N 38°44' W 009°06'0 0.0
2014-Sep-18 08:33N 38°44' W 009°06'0 0.0
2014-Sep-18 07:33N 38°44' W 009°06'0 0.0
2014-Sep-18 06:31N 38°43' W 009°06'3 3.0
2014-Sep-18 05:34N 38°42' W 009°09'1111.2
2014-Sep-18 04:33N 38°37' W 009°22'  
2014-Sep-14 12:20N 50°30' E 000°11'1114.1
2014-Sep-14 11:33N 50°35' E 000°26'1515.0
2014-Sep-14 10:33N 50°42' E 000°47'3517.4
2014-Sep-14 08:33N 51°03' E 001°31'1716.6
2014-Sep-14 07:33N 51°15' E 001°49'1515.0
2014-Sep-14 06:33N 51°28' E 002°02'1514.2
2014-Sep-14 05:29N 51°39' E 002°18'4213.7
2014-Sep-14 02:27N 52°02' E 003°14'1416.1
2014-Sep-14 01:33N 52°04' E 003°37'16 4.1
2014-Sep-13 21:33N 51°58' E 004°02'0 0.0
2014-Sep-13 20:33N 51°58' E 004°02'0 0.0
2014-Sep-13 19:30N 51°58' E 004°02'0 0.0
2014-Sep-13 18:32N 51°58' E 004°02'0 0.0
2014-Sep-13 17:31N 51°58' E 004°02'0 0.0
2014-Sep-13 16:31N 51°58' E 004°02'0 0.0
2014-Sep-13 15:28N 51°58' E 004°02'0 0.0
2014-Sep-13 14:31N 51°58' E 004°02'0 0.0
2014-Sep-13 13:31N 51°58' E 004°02'0 0.0
2014-Sep-13 12:28N 51°58' E 004°02'0 0.0
2014-Sep-13 11:31N 51°58' E 004°02'0 0.0
2014-Sep-13 10:32N 51°58' E 004°02'0 0.0
2014-Sep-13 09:31N 51°58' E 004°02'0 0.0
2014-Sep-13 08:32N 51°58' E 004°02'0 0.0
2014-Sep-13 07:32N 51°58' E 004°02'0 0.0
2014-Sep-13 06:32N 51°58' E 004°02'0 0.0
2014-Sep-13 05:23N 51°58' E 004°02'0 0.0
2014-Sep-13 04:08N 51°58' E 004°02'0 0.0
2014-Sep-13 03:32N 51°58' E 004°02'0 0.0
2014-Sep-13 02:32N 51°58' E 004°02'0 0.0
2014-Sep-13 01:28N 51°58' E 004°02'0 0.0
2014-Sep-13 00:32N 51°58' E 004°02'0 0.5
2014-Sep-12 23:34N 51°58' E 004°03'8 7.8
2014-Sep-12 22:33N 52°01' E 003°51'1212.0
2014-Sep-12 21:33N 52°13' E 003°47'1313.2
2014-Sep-12 20:33N 52°26' E 003°50'1312.7
2014-Sep-12 19:33N 52°38' E 003°54'1211.9
2014-Sep-12 18:33N 52°50' E 003°58'1111.0
2014-Sep-12 17:33N 52°60' E 004°06'1311.6
2014-Sep-12 16:27N 53°08' E 004°22'1612.3
2014-Sep-12 15:11N 53°23' E 004°32'813.2
2014-Sep-12 14:33N 53°31' E 004°36'1413.3
2014-Sep-12 13:29N 53°44' E 004°42'1313.2
2014-Sep-12 12:30N 53°56' E 004°50'1413.8
2014-Sep-12 11:30N 54°09' E 004°58'10016.8
2014-Sep-12 05:33N 55°34' E 006°30'1717.0
2014-Sep-12 04:33N 55°48' E 006°47'13316.4
2014-Sep-11 20:25N 57°30' E 009°23'1517.0
2014-Sep-11 19:33N 57°38' E 009°46'1717.1
2014-Sep-11 18:33N 57°46' E 010°14'1616.4
2014-Sep-11 17:33N 57°49' E 010°44'1716.7
2014-Sep-11 16:33N 57°37' E 011°08'1616.4
2014-Sep-11 15:33N 57°25' E 011°28'1717.0
2014-Sep-11 14:33N 57°09' E 011°39'1717.0
2014-Sep-11 13:33N 56°53' E 011°49'1514.9
2014-Sep-11 12:32N 56°38' E 011°44'28 2.0
2014-Sep-10 22:26N 56°17' E 011°10'1314.1
2014-Sep-10 21:30N 56°27' E 011°26'1314.0
2014-Sep-10 20:33N 56°37' E 011°40'1313.0
2014-Sep-10 19:33N 56°49' E 011°49'1414.0
2014-Sep-10 18:33N 57°03' E 011°41'1414.0
2014-Sep-10 17:34N 57°16' E 011°36'1514.8
2014-Sep-10 16:34N 57°31' E 011°37'1212.4
2014-Sep-10 15:33N 57°41' E 011°51'0 0.2
2014-Sep-10 14:31N 57°41' E 011°51'0 0.0
2014-Sep-10 13:31N 57°41' E 011°51'0 0.0
2014-Sep-10 12:28N 57°41' E 011°51'0 0.0
2014-Sep-10 11:31N 57°41' E 011°51'0 0.0
2014-Sep-10 10:31N 57°41' E 011°51'0 0.0
2014-Sep-10 09:31N 57°41' E 011°51'0 0.0
2014-Sep-10 08:31N 57°41' E 011°51'0 0.0
2014-Sep-10 07:31N 57°41' E 011°51'0 0.0
2014-Sep-10 06:31N 57°41' E 011°51'0 0.0
2014-Sep-10 05:31N 57°41' E 011°51'0 0.0
2014-Sep-10 04:31N 57°41' E 011°51'6 5.8
2014-Sep-10 03:34N 57°38' E 011°42'1313.2
2014-Sep-10 02:34N 57°40' E 011°17'1615.5
2014-Sep-10 01:33N 57°47' E 010°51'39815.8
2014-Sep-09 00:19N 54°58' E 000°00'1215.5
2014-Sep-08 23:33N 54°54' W 000°18'1615.5
2014-Sep-08 22:32N 54°47' W 000°43'1515.0
2014-Sep-08 21:30N 54°40' W 001°07'  

Dump ship's entire track history